sensor_id;sensor_type;location;lat;lon;timestamp;P1;durP1;ratioP1;P2;durP2;ratioP2
51030;SDS011;37058;41.442;23.240;2023-04-03T00:00:32;15.70;;;7.70;;
51030;SDS011;37058;41.442;23.240;2023-04-03T00:02:58;12.90;;;6.57;;
51030;SDS011;37058;41.442;23.240;2023-04-03T00:05:24;10.33;;;5.13;;
51030;SDS011;37058;41.442;23.240;2023-04-03T00:07:50;12.43;;;6.40;;
51030;SDS011;37058;41.442;23.240;2023-04-03T00:10:16;13.87;;;6.90;;
51030;SDS011;37058;41.442;23.240;2023-04-03T00:12:42;13.63;;;6.53;;
51030;SDS011;37058;41.442;23.240;2023-04-03T00:15:08;13.67;;;7.27;;
51030;SDS011;37058;41.442;23.240;2023-04-03T00:17:35;15.80;;;7.27;;
51030;SDS011;37058;41.442;23.240;2023-04-03T00:20:01;14.13;;;8.13;;
51030;SDS011;37058;41.442;23.240;2023-04-03T00:22:28;12.00;;;7.37;;
51030;SDS011;37058;41.442;23.240;2023-04-03T00:24:55;16.37;;;7.53;;
51030;SDS011;37058;41.442;23.240;2023-04-03T00:27:21;14.07;;;6.83;;
51030;SDS011;37058;41.442;23.240;2023-04-03T00:29:47;13.10;;;7.70;;
51030;SDS011;37058;41.442;23.240;2023-04-03T00:32:13;14.37;;;8.70;;
51030;SDS011;37058;41.442;23.240;2023-04-03T00:34:39;15.20;;;10.27;;
51030;SDS011;37058;41.442;23.240;2023-04-03T00:37:05;16.90;;;10.17;;
51030;SDS011;37058;41.442;23.240;2023-04-03T00:39:31;16.90;;;10.67;;
51030;SDS011;37058;41.442;23.240;2023-04-03T00:41:57;17.57;;;9.87;;
51030;SDS011;37058;41.442;23.240;2023-04-03T00:45:22;13.57;;;8.33;;
51030;SDS011;37058;41.442;23.240;2023-04-03T00:47:10;16.20;;;9.53;;
51030;SDS011;37058;41.442;23.240;2023-04-03T00:49:40;15.43;;;9.33;;
51030;SDS011;37058;41.442;23.240;2023-04-03T00:52:09;20.50;;;10.83;;
51030;SDS011;37058;41.442;23.240;2023-04-03T00:54:40;21.17;;;11.10;;
51030;SDS011;37058;41.442;23.240;2023-04-03T00:57:07;20.47;;;9.77;;
51030;SDS011;37058;41.442;23.240;2023-04-03T00:59:35;20.80;;;10.00;;
51030;SDS011;37058;41.442;23.240;2023-04-03T01:02:09;20.20;;;8.53;;
51030;SDS011;37058;41.442;23.240;2023-04-03T01:04:36;22.30;;;10.00;;
51030;SDS011;37058;41.442;23.240;2023-04-03T01:07:12;21.80;;;11.98;;
51030;SDS011;37058;41.442;23.240;2023-04-03T01:09:52;18.67;;;10.37;;
51030;SDS011;37058;41.442;23.240;2023-04-03T01:12:23;27.13;;;12.20;;
51030;SDS011;37058;41.442;23.240;2023-04-03T01:14:54;22.23;;;11.70;;
51030;SDS011;37058;41.442;23.240;2023-04-03T01:25:51;16.77;;;8.87;;
51030;SDS011;37058;41.442;23.240;2023-04-03T01:28:31;18.90;;;11.37;;
51030;SDS011;37058;41.442;23.240;2023-04-03T01:31:15;27.65;;;11.40;;
51030;SDS011;37058;41.442;23.240;2023-04-03T01:34:05;20.73;;;11.27;;
51030;SDS011;37058;41.442;23.240;2023-04-03T01:36:31;21.20;;;11.27;;
51030;SDS011;37058;41.442;23.240;2023-04-03T01:38:58;20.03;;;10.63;;
51030;SDS011;37058;41.442;23.240;2023-04-03T01:41:25;15.27;;;9.03;;
51030;SDS011;37058;41.442;23.240;2023-04-03T01:43:51;13.70;;;8.33;;
51030;SDS011;37058;41.442;23.240;2023-04-03T01:46:18;14.37;;;9.33;;
51030;SDS011;37058;41.442;23.240;2023-04-03T01:48:45;13.70;;;9.67;;
51030;SDS011;37058;41.442;23.240;2023-04-03T01:51:11;14.60;;;8.37;;
51030;SDS011;37058;41.442;23.240;2023-04-03T01:53:37;13.87;;;8.83;;
51030;SDS011;37058;41.442;23.240;2023-04-03T01:56:03;18.90;;;9.33;;
51030;SDS011;37058;41.442;23.240;2023-04-03T01:58:30;11.37;;;6.70;;
51030;SDS011;37058;41.442;23.240;2023-04-03T02:00:55;13.57;;;7.77;;
51030;SDS011;37058;41.442;23.240;2023-04-03T02:03:21;10.33;;;7.13;;
51030;SDS011;37058;41.442;23.240;2023-04-03T02:05:47;10.03;;;7.13;;
51030;SDS011;37058;41.442;23.240;2023-04-03T02:08:14;11.13;;;6.73;;
51030;SDS011;37058;41.442;23.240;2023-04-03T02:10:43;12.40;;;6.83;;
51030;SDS011;37058;41.442;23.240;2023-04-03T02:13:11;16.60;;;8.43;;
51030;SDS011;37058;41.442;23.240;2023-04-03T02:15:38;12.97;;;8.23;;
51030;SDS011;37058;41.442;23.240;2023-04-03T02:18:04;13.93;;;8.40;;
51030;SDS011;37058;41.442;23.240;2023-04-03T02:20:31;14.60;;;8.17;;
51030;SDS011;37058;41.442;23.240;2023-04-03T02:22:58;13.00;;;6.73;;
51030;SDS011;37058;41.442;23.240;2023-04-03T02:25:24;11.83;;;6.30;;
51030;SDS011;37058;41.442;23.240;2023-04-03T02:27:51;10.20;;;5.77;;
51030;SDS011;37058;41.442;23.240;2023-04-03T02:30:17;12.67;;;6.07;;
51030;SDS011;37058;41.442;23.240;2023-04-03T02:32:43;12.00;;;6.27;;
51030;SDS011;37058;41.442;23.240;2023-04-03T02:35:09;8.37;;;5.20;;
51030;SDS011;37058;41.442;23.240;2023-04-03T02:37:36;11.20;;;7.17;;
51030;SDS011;37058;41.442;23.240;2023-04-03T02:40:03;16.00;;;8.50;;
51030;SDS011;37058;41.442;23.240;2023-04-03T02:42:30;19.23;;;10.57;;
51030;SDS011;37058;41.442;23.240;2023-04-03T02:44:56;23.27;;;11.33;;
51030;SDS011;37058;41.442;23.240;2023-04-03T02:47:21;18.17;;;10.23;;
51030;SDS011;37058;41.442;23.240;2023-04-03T02:49:47;19.03;;;9.77;;
51030;SDS011;37058;41.442;23.240;2023-04-03T02:52:13;17.67;;;10.40;;
51030;SDS011;37058;41.442;23.240;2023-04-03T02:54:40;20.50;;;13.23;;
51030;SDS011;37058;41.442;23.240;2023-04-03T02:57:06;22.40;;;12.33;;
51030;SDS011;37058;41.442;23.240;2023-04-03T02:59:35;34.93;;;14.80;;
51030;SDS011;37058;41.442;23.240;2023-04-03T03:02:05;20.95;;;13.35;;
51030;SDS011;37058;41.442;23.240;2023-04-03T03:04:34;17.17;;;10.20;;
51030;SDS011;37058;41.442;23.240;2023-04-03T03:07:00;17.73;;;9.27;;
51030;SDS011;37058;41.442;23.240;2023-04-03T03:09:27;13.40;;;7.80;;
51030;SDS011;37058;41.442;23.240;2023-04-03T03:11:53;16.80;;;7.13;;
51030;SDS011;37058;41.442;23.240;2023-04-03T03:14:18;10.67;;;6.33;;
51030;SDS011;37058;41.442;23.240;2023-04-03T03:16:44;14.63;;;6.97;;
51030;SDS011;37058;41.442;23.240;2023-04-03T03:19:10;12.50;;;6.23;;
51030;SDS011;37058;41.442;23.240;2023-04-03T03:21:36;14.97;;;7.03;;
51030;SDS011;37058;41.442;23.240;2023-04-03T03:24:02;14.47;;;7.30;;
51030;SDS011;37058;41.442;23.240;2023-04-03T03:26:28;14.00;;;7.67;;
51030;SDS011;37058;41.442;23.240;2023-04-03T03:28:54;12.70;;;8.17;;
51030;SDS011;37058;41.442;23.240;2023-04-03T03:31:20;17.30;;;7.97;;
51030;SDS011;37058;41.442;23.240;2023-04-03T03:33:46;17.83;;;8.50;;
51030;SDS011;37058;41.442;23.240;2023-04-03T03:36:12;15.33;;;8.13;;
51030;SDS011;37058;41.442;23.240;2023-04-03T03:38:38;17.30;;;8.73;;
51030;SDS011;37058;41.442;23.240;2023-04-03T03:41:04;17.23;;;10.10;;
51030;SDS011;37058;41.442;23.240;2023-04-03T03:43:30;24.50;;;12.00;;
51030;SDS011;37058;41.442;23.240;2023-04-03T03:45:56;19.90;;;12.40;;
51030;SDS011;37058;41.442;23.240;2023-04-03T03:48:22;24.37;;;13.10;;
51030;SDS011;37058;41.442;23.240;2023-04-03T03:50:48;23.37;;;12.27;;
51030;SDS011;37058;41.442;23.240;2023-04-03T03:53:15;21.53;;;14.30;;
51030;SDS011;37058;41.442;23.240;2023-04-03T03:55:41;24.87;;;15.27;;
51030;SDS011;37058;41.442;23.240;2023-04-03T03:58:07;28.73;;;16.57;;
51030;SDS011;37058;41.442;23.240;2023-04-03T04:00:33;25.73;;;13.17;;
51030;SDS011;37058;41.442;23.240;2023-04-03T04:02:59;24.47;;;13.27;;
51030;SDS011;37058;41.442;23.240;2023-04-03T04:05:25;28.00;;;12.50;;
51030;SDS011;37058;41.442;23.240;2023-04-03T04:07:51;34.30;;;13.87;;
51030;SDS011;37058;41.442;23.240;2023-04-03T04:10:17;22.37;;;11.43;;
51030;SDS011;37058;41.442;23.240;2023-04-03T04:12:43;23.37;;;12.30;;
51030;SDS011;37058;41.442;23.240;2023-04-03T04:15:09;23.23;;;13.23;;
51030;SDS011;37058;41.442;23.240;2023-04-03T04:17:36;25.57;;;13.77;;
51030;SDS011;37058;41.442;23.240;2023-04-03T04:20:02;28.53;;;14.90;;
51030;SDS011;37058;41.442;23.240;2023-04-03T04:22:30;22.37;;;13.43;;
51030;SDS011;37058;41.442;23.240;2023-04-03T04:24:55;25.47;;;15.43;;
51030;SDS011;37058;41.442;23.240;2023-04-03T04:27:21;32.83;;;19.57;;
51030;SDS011;37058;41.442;23.240;2023-04-03T04:29:47;25.60;;;16.23;;
51030;SDS011;37058;41.442;23.240;2023-04-03T04:32:13;27.73;;;20.03;;
51030;SDS011;37058;41.442;23.240;2023-04-03T04:34:39;29.77;;;18.40;;
51030;SDS011;37058;41.442;23.240;2023-04-03T04:37:05;22.80;;;14.93;;
51030;SDS011;37058;41.442;23.240;2023-04-03T04:39:31;21.70;;;14.33;;
51030;SDS011;37058;41.442;23.240;2023-04-03T04:41:57;18.57;;;12.47;;
51030;SDS011;37058;41.442;23.240;2023-04-03T04:44:22;28.17;;;11.50;;
51030;SDS011;37058;41.442;23.240;2023-04-03T04:46:48;16.93;;;10.27;;
51030;SDS011;37058;41.442;23.240;2023-04-03T04:49:14;16.63;;;9.70;;
51030;SDS011;37058;41.442;23.240;2023-04-03T04:51:40;16.77;;;8.53;;
51030;SDS011;37058;41.442;23.240;2023-04-03T04:54:06;14.27;;;7.93;;
51030;SDS011;37058;41.442;23.240;2023-04-03T04:56:32;12.90;;;6.63;;
51030;SDS011;37058;41.442;23.240;2023-04-03T04:58:58;10.57;;;7.30;;
51030;SDS011;37058;41.442;23.240;2023-04-03T05:01:24;12.53;;;7.13;;
51030;SDS011;37058;41.442;23.240;2023-04-03T05:03:50;9.73;;;5.73;;
51030;SDS011;37058;41.442;23.240;2023-04-03T05:06:16;8.50;;;5.73;;
51030;SDS011;37058;41.442;23.240;2023-04-03T05:08:41;13.83;;;7.47;;
51030;SDS011;37058;41.442;23.240;2023-04-03T05:11:07;21.77;;;7.83;;
51030;SDS011;37058;41.442;23.240;2023-04-03T05:13:33;13.73;;;8.60;;
51030;SDS011;37058;41.442;23.240;2023-04-03T05:15:59;35.17;;;27.27;;
51030;SDS011;37058;41.442;23.240;2023-04-03T05:18:25;29.17;;;14.03;;
51030;SDS011;37058;41.442;23.240;2023-04-03T05:20:51;29.90;;;13.50;;
51030;SDS011;37058;41.442;23.240;2023-04-03T05:23:17;19.57;;;10.30;;
51030;SDS011;37058;41.442;23.240;2023-04-03T05:25:43;28.70;;;16.40;;
51030;SDS011;37058;41.442;23.240;2023-04-03T05:28:11;34.27;;;16.63;;
51030;SDS011;37058;41.442;23.240;2023-04-03T05:30:38;17.70;;;11.73;;
51030;SDS011;37058;41.442;23.240;2023-04-03T05:33:03;18.37;;;11.20;;
51030;SDS011;37058;41.442;23.240;2023-04-03T05:35:30;23.00;;;13.10;;
51030;SDS011;37058;41.442;23.240;2023-04-03T05:37:57;22.67;;;13.87;;
51030;SDS011;37058;41.442;23.240;2023-04-03T05:40:23;16.33;;;9.47;;
51030;SDS011;37058;41.442;23.240;2023-04-03T05:42:49;18.53;;;9.43;;
51030;SDS011;37058;41.442;23.240;2023-04-03T05:45:14;19.60;;;10.97;;
51030;SDS011;37058;41.442;23.240;2023-04-03T05:47:40;21.50;;;11.53;;
51030;SDS011;37058;41.442;23.240;2023-04-03T05:50:06;20.27;;;12.53;;
51030;SDS011;37058;41.442;23.240;2023-04-03T05:52:34;32.13;;;13.90;;
51030;SDS011;37058;41.442;23.240;2023-04-03T05:57:29;22.63;;;11.73;;
51030;SDS011;37058;41.442;23.240;2023-04-03T05:59:55;24.77;;;14.97;;
51030;SDS011;37058;41.442;23.240;2023-04-03T06:02:22;22.43;;;13.90;;
51030;SDS011;37058;41.442;23.240;2023-04-03T06:04:49;21.00;;;12.37;;
51030;SDS011;37058;41.442;23.240;2023-04-03T06:07:20;13.60;;;9.90;;
51030;SDS011;37058;41.442;23.240;2023-04-03T06:09:48;16.70;;;10.40;;
51030;SDS011;37058;41.442;23.240;2023-04-03T06:12:16;15.77;;;9.63;;
51030;SDS011;37058;41.442;23.240;2023-04-03T06:14:42;16.97;;;11.10;;
51030;SDS011;37058;41.442;23.240;2023-04-03T06:17:09;29.67;;;10.27;;
51030;SDS011;37058;41.442;23.240;2023-04-03T06:19:35;17.57;;;9.70;;
51030;SDS011;37058;41.442;23.240;2023-04-03T06:22:01;17.90;;;10.77;;
51030;SDS011;37058;41.442;23.240;2023-04-03T06:24:28;21.17;;;11.20;;
51030;SDS011;37058;41.442;23.240;2023-04-03T06:26:57;20.60;;;11.50;;
51030;SDS011;37058;41.442;23.240;2023-04-03T06:29:26;17.13;;;11.10;;
51030;SDS011;37058;41.442;23.240;2023-04-03T06:31:52;22.37;;;11.60;;
51030;SDS011;37058;41.442;23.240;2023-04-03T06:34:18;26.93;;;14.67;;
51030;SDS011;37058;41.442;23.240;2023-04-03T06:36:45;38.07;;;20.40;;
51030;SDS011;37058;41.442;23.240;2023-04-03T06:39:12;30.57;;;16.53;;
51030;SDS011;37058;41.442;23.240;2023-04-03T06:41:41;22.08;;;13.75;;
51030;SDS011;37058;41.442;23.240;2023-04-03T06:44:07;20.10;;;13.33;;
51030;SDS011;37058;41.442;23.240;2023-04-03T06:46:36;24.90;;;16.33;;
51030;SDS011;37058;41.442;23.240;2023-04-03T06:49:03;48.43;;;24.40;;
51030;SDS011;37058;41.442;23.240;2023-04-03T06:51:32;52.47;;;26.73;;
51030;SDS011;37058;41.442;23.240;2023-04-03T06:53:59;35.87;;;17.23;;
51030;SDS011;37058;41.442;23.240;2023-04-03T06:56:26;51.27;;;23.63;;
51030;SDS011;37058;41.442;23.240;2023-04-03T06:58:52;54.80;;;24.10;;
51030;SDS011;37058;41.442;23.240;2023-04-03T07:01:19;51.07;;;21.10;;
51030;SDS011;37058;41.442;23.240;2023-04-03T07:03:46;59.47;;;28.43;;
51030;SDS011;37058;41.442;23.240;2023-04-03T07:06:13;55.07;;;25.03;;
51030;SDS011;37058;41.442;23.240;2023-04-03T07:08:41;46.03;;;24.67;;
51030;SDS011;37058;41.442;23.240;2023-04-03T07:11:08;47.17;;;26.03;;
51030;SDS011;37058;41.442;23.240;2023-04-03T07:13:35;36.63;;;19.97;;
51030;SDS011;37058;41.442;23.240;2023-04-03T07:16:01;24.00;;;14.23;;
51030;SDS011;37058;41.442;23.240;2023-04-03T07:18:29;21.47;;;13.37;;
51030;SDS011;37058;41.442;23.240;2023-04-03T07:20:57;19.33;;;11.10;;
51030;SDS011;37058;41.442;23.240;2023-04-03T07:23:23;35.23;;;22.43;;
51030;SDS011;37058;41.442;23.240;2023-04-03T07:25:50;44.03;;;20.17;;
51030;SDS011;37058;41.442;23.240;2023-04-03T07:28:17;30.87;;;18.57;;
51030;SDS011;37058;41.442;23.240;2023-04-03T07:30:46;27.97;;;15.70;;
51030;SDS011;37058;41.442;23.240;2023-04-03T07:33:18;43.50;;;21.00;;
51030;SDS011;37058;41.442;23.240;2023-04-03T07:35:47;39.63;;;20.70;;
51030;SDS011;37058;41.442;23.240;2023-04-03T07:38:13;39.57;;;25.77;;
51030;SDS011;37058;41.442;23.240;2023-04-03T07:40:39;37.80;;;21.47;;
51030;SDS011;37058;41.442;23.240;2023-04-03T07:43:10;33.97;;;16.67;;
51030;SDS011;37058;41.442;23.240;2023-04-03T07:45:36;26.30;;;13.67;;
51030;SDS011;37058;41.442;23.240;2023-04-03T07:48:02;27.17;;;14.27;;
51030;SDS011;37058;41.442;23.240;2023-04-03T07:50:28;26.30;;;12.57;;
51030;SDS011;37058;41.442;23.240;2023-04-03T07:52:56;20.50;;;12.57;;
51030;SDS011;37058;41.442;23.240;2023-04-03T07:55:22;22.77;;;12.87;;
51030;SDS011;37058;41.442;23.240;2023-04-03T07:57:49;23.30;;;11.93;;
51030;SDS011;37058;41.442;23.240;2023-04-03T08:00:15;20.50;;;12.90;;
51030;SDS011;37058;41.442;23.240;2023-04-03T08:02:42;38.77;;;12.53;;
51030;SDS011;37058;41.442;23.240;2023-04-03T08:05:09;28.07;;;16.10;;
51030;SDS011;37058;41.442;23.240;2023-04-03T08:07:36;34.03;;;17.30;;
51030;SDS011;37058;41.442;23.240;2023-04-03T08:10:03;32.07;;;19.00;;
51030;SDS011;37058;41.442;23.240;2023-04-03T08:12:30;29.40;;;16.70;;
51030;SDS011;37058;41.442;23.240;2023-04-03T08:14:57;24.87;;;16.57;;
51030;SDS011;37058;41.442;23.240;2023-04-03T08:17:26;23.60;;;16.23;;
51030;SDS011;37058;41.442;23.240;2023-04-03T08:19:52;36.07;;;22.23;;
51030;SDS011;37058;41.442;23.240;2023-04-03T08:22:17;30.07;;;18.50;;
51030;SDS011;37058;41.442;23.240;2023-04-03T08:24:43;24.47;;;14.73;;
51030;SDS011;37058;41.442;23.240;2023-04-03T08:27:10;18.00;;;12.07;;
51030;SDS011;37058;41.442;23.240;2023-04-03T08:29:35;17.20;;;11.27;;
51030;SDS011;37058;41.442;23.240;2023-04-03T08:32:02;25.30;;;17.37;;
51030;SDS011;37058;41.442;23.240;2023-04-03T08:34:30;19.17;;;11.73;;
51030;SDS011;37058;41.442;23.240;2023-04-03T08:36:59;15.23;;;10.43;;
51030;SDS011;37058;41.442;23.240;2023-04-03T08:39:28;20.00;;;14.23;;
51030;SDS011;37058;41.442;23.240;2023-04-03T08:41:55;22.23;;;13.93;;
51030;SDS011;37058;41.442;23.240;2023-04-03T08:44:39;20.60;;;12.30;;
51030;SDS011;37058;41.442;23.240;2023-04-03T08:47:40;23.47;;;13.60;;
51030;SDS011;37058;41.442;23.240;2023-04-03T08:50:33;21.03;;;12.50;;
51030;SDS011;37058;41.442;23.240;2023-04-03T08:53:11;20.73;;;12.33;;
51030;SDS011;37058;41.442;23.240;2023-04-03T08:56:00;26.03;;;17.93;;
51030;SDS011;37058;41.442;23.240;2023-04-03T08:58:42;26.93;;;16.73;;
51030;SDS011;37058;41.442;23.240;2023-04-03T09:01:19;29.88;;;16.30;;
51030;SDS011;37058;41.442;23.240;2023-04-03T09:03:52;26.63;;;15.13;;
51030;SDS011;37058;41.442;23.240;2023-04-03T09:06:23;22.80;;;13.90;;
51030;SDS011;37058;41.442;23.240;2023-04-03T09:21:12;27.40;;;16.40;;
51030;SDS011;37058;41.442;23.240;2023-04-03T09:23:46;34.87;;;22.47;;
51030;SDS011;37058;41.442;23.240;2023-04-03T09:26:20;20.23;;;12.30;;
51030;SDS011;37058;41.442;23.240;2023-04-03T09:29:12;35.90;;;24.60;;
51030;SDS011;37058;41.442;23.240;2023-04-03T09:31:48;27.83;;;18.40;;
51030;SDS011;37058;41.442;23.240;2023-04-03T09:34:23;31.03;;;19.53;;
51030;SDS011;37058;41.442;23.240;2023-04-03T09:36:56;32.63;;;18.50;;
51030;SDS011;37058;41.442;23.240;2023-04-03T09:39:30;32.40;;;22.50;;
51030;SDS011;37058;41.442;23.240;2023-04-03T09:44:41;31.53;;;20.67;;
51030;SDS011;37058;41.442;23.240;2023-04-03T09:47:24;27.73;;;19.33;;
51030;SDS011;37058;41.442;23.240;2023-04-03T09:50:41;25.80;;;17.80;;
51030;SDS011;37058;41.442;23.240;2023-04-03T09:52:46;22.23;;;12.40;;
51030;SDS011;37058;41.442;23.240;2023-04-03T09:55:20;15.20;;;10.20;;
51030;SDS011;37058;41.442;23.240;2023-04-03T09:57:57;16.60;;;9.90;;
51030;SDS011;37058;41.442;23.240;2023-04-03T10:00:36;9.80;;;7.20;;
51030;SDS011;37058;41.442;23.240;2023-04-03T10:03:05;13.63;;;9.23;;
51030;SDS011;37058;41.442;23.240;2023-04-03T10:05:49;10.37;;;6.50;;
51030;SDS011;37058;41.442;23.240;2023-04-03T10:08:26;9.52;;;6.07;;
51030;SDS011;37058;41.442;23.240;2023-04-03T10:11:09;8.23;;;6.47;;
51030;SDS011;37058;41.442;23.240;2023-04-03T10:13:54;7.77;;;4.67;;
51030;SDS011;37058;41.442;23.240;2023-04-03T10:19:58;9.27;;;5.20;;
51030;SDS011;37058;41.442;23.240;2023-04-03T10:25:51;8.43;;;4.83;;
51030;SDS011;37058;41.442;23.240;2023-04-03T10:36:45;4.67;;;3.10;;
51030;SDS011;37058;41.442;23.240;2023-04-03T10:39:30;7.13;;;3.40;;
51030;SDS011;37058;41.442;23.240;2023-04-03T10:50:39;8.07;;;3.83;;
51030;SDS011;37058;41.442;23.240;2023-04-03T11:02:04;6.57;;;4.30;;
51030;SDS011;37058;41.442;23.240;2023-04-03T11:07:45;8.23;;;3.43;;
51030;SDS011;37058;41.442;23.240;2023-04-03T11:10:20;7.47;;;4.00;;
51030;SDS011;37058;41.442;23.240;2023-04-03T11:16:31;7.93;;;5.30;;
51030;SDS011;37058;41.442;23.240;2023-04-03T11:21:44;10.23;;;6.90;;
51030;SDS011;37058;41.442;23.240;2023-04-03T11:24:25;13.27;;;7.03;;
51030;SDS011;37058;41.442;23.240;2023-04-03T11:26:55;12.47;;;7.67;;
51030;SDS011;37058;41.442;23.240;2023-04-03T11:29:26;14.80;;;6.18;;
51030;SDS011;37058;41.442;23.240;2023-04-03T11:35:35;9.63;;;5.57;;
51030;SDS011;37058;41.442;23.240;2023-04-03T11:38:03;7.97;;;5.50;;
51030;SDS011;37058;41.442;23.240;2023-04-03T11:40:34;6.73;;;4.63;;
51030;SDS011;37058;41.442;23.240;2023-04-03T11:43:25;9.30;;;6.03;;
51030;SDS011;37058;41.442;23.240;2023-04-03T11:45:54;9.50;;;6.53;;
51030;SDS011;37058;41.442;23.240;2023-04-03T11:51:01;14.40;;;8.63;;
51030;SDS011;37058;41.442;23.240;2023-04-03T11:53:38;10.60;;;6.40;;
51030;SDS011;37058;41.442;23.240;2023-04-03T12:01:57;13.00;;;9.10;;
51030;SDS011;37058;41.442;23.240;2023-04-03T12:04:24;10.97;;;7.60;;
51030;SDS011;37058;41.442;23.240;2023-04-03T12:07:00;12.53;;;7.60;;
51030;SDS011;37058;41.442;23.240;2023-04-03T12:18:31;9.87;;;6.97;;
51030;SDS011;37058;41.442;23.240;2023-04-03T12:22:05;12.67;;;7.83;;
51030;SDS011;37058;41.442;23.240;2023-04-03T12:24:31;10.57;;;7.23;;
51030;SDS011;37058;41.442;23.240;2023-04-03T12:27:09;12.17;;;7.93;;
51030;SDS011;37058;41.442;23.240;2023-04-03T12:35:46;12.50;;;6.97;;
51030;SDS011;37058;41.442;23.240;2023-04-03T12:38:30;12.87;;;7.57;;
51030;SDS011;37058;41.442;23.240;2023-04-03T12:41:38;15.37;;;8.93;;
51030;SDS011;37058;41.442;23.240;2023-04-03T12:44:35;15.97;;;9.13;;
51030;SDS011;37058;41.442;23.240;2023-04-03T12:47:32;11.83;;;7.23;;
51030;SDS011;37058;41.442;23.240;2023-04-03T12:50:04;12.03;;;6.67;;
51030;SDS011;37058;41.442;23.240;2023-04-03T12:52:54;14.57;;;8.47;;
51030;SDS011;37058;41.442;23.240;2023-04-03T12:55:31;12.43;;;7.80;;
51030;SDS011;37058;41.442;23.240;2023-04-03T12:57:57;10.73;;;6.50;;
51030;SDS011;37058;41.442;23.240;2023-04-03T13:00:42;7.03;;;5.63;;
51030;SDS011;37058;41.442;23.240;2023-04-03T13:03:19;7.73;;;5.47;;
51030;SDS011;37058;41.442;23.240;2023-04-03T13:05:52;8.03;;;6.37;;
51030;SDS011;37058;41.442;23.240;2023-04-03T13:08:22;11.50;;;6.47;;
51030;SDS011;37058;41.442;23.240;2023-04-03T13:13:34;10.63;;;6.97;;
51030;SDS011;37058;41.442;23.240;2023-04-03T13:16:09;8.83;;;5.13;;
51030;SDS011;37058;41.442;23.240;2023-04-03T13:18:36;7.23;;;5.10;;
51030;SDS011;37058;41.442;23.240;2023-04-03T13:21:07;6.47;;;4.37;;
51030;SDS011;37058;41.442;23.240;2023-04-03T13:23:43;6.80;;;4.60;;
51030;SDS011;37058;41.442;23.240;2023-04-03T13:26:15;8.27;;;5.53;;
51030;SDS011;37058;41.442;23.240;2023-04-03T13:28:43;8.00;;;4.53;;
51030;SDS011;37058;41.442;23.240;2023-04-03T13:33:43;9.13;;;4.80;;
51030;SDS011;37058;41.442;23.240;2023-04-03T13:36:43;7.20;;;4.30;;
51030;SDS011;37058;41.442;23.240;2023-04-03T13:39:38;8.30;;;5.20;;
51030;SDS011;37058;41.442;23.240;2023-04-03T13:42:22;10.20;;;5.20;;
51030;SDS011;37058;41.442;23.240;2023-04-03T13:47:53;14.63;;;9.27;;
51030;SDS011;37058;41.442;23.240;2023-04-03T13:50:59;14.98;;;8.82;;
51030;SDS011;37058;41.442;23.240;2023-04-03T13:56:37;13.40;;;9.10;;
51030;SDS011;37058;41.442;23.240;2023-04-03T14:04:45;13.57;;;9.03;;
51030;SDS011;37058;41.442;23.240;2023-04-03T14:07:21;13.27;;;8.97;;
51030;SDS011;37058;41.442;23.240;2023-04-03T14:09:47;14.20;;;10.43;;
51030;SDS011;37058;41.442;23.240;2023-04-03T14:12:56;17.87;;;11.53;;
51030;SDS011;37058;41.442;23.240;2023-04-03T14:17:51;15.47;;;11.20;;
51030;SDS011;37058;41.442;23.240;2023-04-03T14:20:19;16.27;;;13.40;;
51030;SDS011;37058;41.442;23.240;2023-04-03T14:22:47;16.40;;;12.05;;
51030;SDS011;37058;41.442;23.240;2023-04-03T14:25:15;18.23;;;12.13;;
51030;SDS011;37058;41.442;23.240;2023-04-03T14:27:43;20.80;;;13.93;;
51030;SDS011;37058;41.442;23.240;2023-04-03T14:30:35;20.33;;;12.40;;
51030;SDS011;37058;41.442;23.240;2023-04-03T14:33:01;18.60;;;11.50;;
51030;SDS011;37058;41.442;23.240;2023-04-03T14:35:28;15.90;;;10.97;;
51030;SDS011;37058;41.442;23.240;2023-04-03T14:37:54;22.20;;;11.80;;
51030;SDS011;37058;41.442;23.240;2023-04-03T14:40:22;18.80;;;11.87;;
51030;SDS011;37058;41.442;23.240;2023-04-03T14:42:52;14.60;;;10.87;;
51030;SDS011;37058;41.442;23.240;2023-04-03T14:45:21;19.47;;;12.83;;
51030;SDS011;37058;41.442;23.240;2023-04-03T14:47:49;20.80;;;13.80;;
51030;SDS011;37058;41.442;23.240;2023-04-03T14:50:22;15.57;;;12.52;;
51030;SDS011;37058;41.442;23.240;2023-04-03T14:52:52;16.57;;;11.60;;
51030;SDS011;37058;41.442;23.240;2023-04-03T14:55:22;16.95;;;10.88;;
51030;SDS011;37058;41.442;23.240;2023-04-03T14:57:50;17.17;;;10.83;;
51030;SDS011;37058;41.442;23.240;2023-04-03T15:00:18;41.77;;;21.90;;
51030;SDS011;37058;41.442;23.240;2023-04-03T15:02:47;103.50;;;49.33;;
51030;SDS011;37058;41.442;23.240;2023-04-03T15:05:13;24.90;;;18.47;;
51030;SDS011;37058;41.442;23.240;2023-04-03T15:07:48;23.40;;;15.70;;
51030;SDS011;37058;41.442;23.240;2023-04-03T15:10:20;44.47;;;32.53;;
51030;SDS011;37058;41.442;23.240;2023-04-03T15:12:48;36.53;;;23.87;;
51030;SDS011;37058;41.442;23.240;2023-04-03T15:15:16;41.80;;;26.83;;
51030;SDS011;37058;41.442;23.240;2023-04-03T15:17:45;23.10;;;18.67;;
51030;SDS011;37058;41.442;23.240;2023-04-03T15:20:14;28.63;;;18.33;;
51030;SDS011;37058;41.442;23.240;2023-04-03T15:22:44;40.63;;;22.73;;
51030;SDS011;37058;41.442;23.240;2023-04-03T15:25:10;30.07;;;19.27;;
51030;SDS011;37058;41.442;23.240;2023-04-03T15:27:36;17.93;;;12.00;;
51030;SDS011;37058;41.442;23.240;2023-04-03T15:30:05;18.93;;;11.47;;
51030;SDS011;37058;41.442;23.240;2023-04-03T15:32:37;25.47;;;18.13;;
51030;SDS011;37058;41.442;23.240;2023-04-03T15:35:04;26.40;;;19.53;;
51030;SDS011;37058;41.442;23.240;2023-04-03T15:37:30;53.13;;;29.87;;
51030;SDS011;37058;41.442;23.240;2023-04-03T15:39:56;24.43;;;15.40;;
51030;SDS011;37058;41.442;23.240;2023-04-03T15:42:22;24.97;;;16.13;;
51030;SDS011;37058;41.442;23.240;2023-04-03T15:44:48;18.97;;;12.73;;
51030;SDS011;37058;41.442;23.240;2023-04-03T15:47:14;69.60;;;39.97;;
51030;SDS011;37058;41.442;23.240;2023-04-03T15:49:40;21.83;;;16.13;;
51030;SDS011;37058;41.442;23.240;2023-04-03T15:52:06;19.43;;;14.90;;
51030;SDS011;37058;41.442;23.240;2023-04-03T15:54:32;20.80;;;15.03;;
51030;SDS011;37058;41.442;23.240;2023-04-03T15:56:58;18.40;;;12.83;;
51030;SDS011;37058;41.442;23.240;2023-04-03T15:59:27;12.50;;;9.17;;
51030;SDS011;37058;41.442;23.240;2023-04-03T16:01:55;16.67;;;10.53;;
51030;SDS011;37058;41.442;23.240;2023-04-03T16:04:21;16.13;;;9.87;;
51030;SDS011;37058;41.442;23.240;2023-04-03T16:06:47;28.20;;;17.57;;
51030;SDS011;37058;41.442;23.240;2023-04-03T16:09:14;37.97;;;24.43;;
51030;SDS011;37058;41.442;23.240;2023-04-03T16:11:40;30.23;;;20.27;;
51030;SDS011;37058;41.442;23.240;2023-04-03T16:14:07;22.23;;;13.63;;
51030;SDS011;37058;41.442;23.240;2023-04-03T16:16:33;15.63;;;11.23;;
51030;SDS011;37058;41.442;23.240;2023-04-03T16:19:00;17.23;;;12.37;;
51030;SDS011;37058;41.442;23.240;2023-04-03T16:21:26;63.40;;;35.50;;
51030;SDS011;37058;41.442;23.240;2023-04-03T16:23:52;55.40;;;30.63;;
51030;SDS011;37058;41.442;23.240;2023-04-03T16:26:20;33.17;;;20.03;;